Time;durP1;ratioP1;P1;durP2;ratioP2;P2;SDS_P1;SDS_P2;PMS_P1;PMS_P2;Temp;Humidity;BMP_temperature;BMP_pressure;BME280_temperature;BME280_humidity;BME280_pressure;Samples;Min_cycle;Max_cycle;Signal;HPM_P1;HPM_P2
2023/08/18 00:02:17;;;;;;;19.48;18.45;;;;;;;-141.02;75.69;40713.38;5112860;28;20195;-66
2023/08/18 00:04:58;;;;;;;19.40;18.40;;;;;;;-141.02;76.28;40724.88;5112532;28;20284;-68
2023/08/18 00:07:26;;;;;;;19.02;18.02;;;;;;;-141.02;76.37;40736.38;5112553;28;20285;-58
2023/08/18 00:10:17;;;;;;;18.92;17.92;;;;;;;-141.02;76.46;40717.19;5112768;28;20204;-65
2023/08/18 00:13:34;;;;;;;19.00;18.00;;;;;;;-141.02;77.23;40744.06;5112739;28;20200;-61
2023/08/18 00:16:35;;;;;;;19.05;18.05;;;;;;;-141.02;77.81;40736.38;5112743;28;20193;-62
2023/08/18 00:19:02;;;;;;;18.88;17.88;;;;;;;-141.02;78.25;40759.41;5112565;28;20198;-62
2023/08/18 00:24:52;;;;;;;19.33;18.33;;;;;;;-141.02;79.73;40734.47;5112316;28;20245;-64
2023/08/18 00:27:19;;;;;;;19.60;18.60;;;;;;;-141.02;79.87;40755.56;5112246;28;20611;-59
2023/08/18 00:29:52;;;;;;;18.88;17.88;;;;;;;-141.02;80.54;40767.09;5112304;28;20203;-61
2023/08/18 00:32:19;;;;;;;18.95;18.05;;;;;;;-141.02;80.49;40755.56;5112263;28;20586;-64
2023/08/18 00:34:46;;;;;;;19.10;18.10;;;;;;;-141.02;81.10;40763.25;5112264;28;20193;-65
2023/08/18 00:37:15;;;;;;;19.17;18.17;;;;;;;-141.02;81.36;40780.50;5112517;28;20197;-66
2023/08/18 00:43:05;;;;;;;18.70;17.80;;;;;;;-141.02;82.49;40769.00;5112293;28;20264;-64
2023/08/18 00:45:32;;;;;;;18.77;17.88;;;;;;;-141.02;82.76;40770.91;5112904;28;20320;-61
2023/08/18 00:47:59;;;;;;;18.90;18.00;;;;;;;-141.02;83.22;40745.97;5112166;28;20190;-68
2023/08/18 00:50:26;;;;;;;18.52;17.63;;;;;;;-141.02;83.19;40759.41;5115870;28;20689;-64
2023/08/18 00:52:58;;;;;;;19.10;18.10;;;;;;;-141.02;83.41;40767.09;5116421;28;20315;-59
2023/08/18 00:55:26;;;;;;;19.00;18.00;;;;;;;-141.02;83.76;40755.56;5116109;28;20199;-63
2023/08/18 00:57:55;;;;;;;18.88;17.88;;;;;;;-141.02;84.44;40805.47;5116036;28;20185;-61
2023/08/18 01:00:23;;;;;;;19.08;18.08;;;;;;;-141.02;84.52;40761.31;5116541;28;20189;-67
2023/08/18 01:03:38;;;;;;;18.83;17.92;;;;;;;-141.02;84.57;40732.56;5116050;28;20683;-67
2023/08/18 01:12:59;;;;;;;18.65;17.75;;;;;;;-141.02;85.60;40753.66;5115672;28;20242;-65
2023/08/18 01:18:50;;;;;;;18.60;17.70;;;;;;;-141.02;86.22;40747.91;5115800;28;20723;-66
2023/08/18 01:21:18;;;;;;;18.63;17.73;;;;;;;-141.02;86.36;40740.22;5115876;28;20197;-61
2023/08/18 01:23:47;;;;;;;18.73;17.83;;;;;;;-141.02;86.54;40726.78;5115820;28;20197;-64
2023/08/18 01:26:14;;;;;;;18.58;17.67;;;;;;;-141.02;86.84;40745.97;5115731;28;20228;-65
2023/08/18 01:28:43;;;;;;;18.63;17.73;;;;;;;-141.02;86.76;40713.38;5115432;28;20235;-66
2023/08/18 01:31:15;;;;;;;18.52;17.63;;;;;;;-141.02;86.94;40721.03;5115598;28;20276;-67
2023/08/18 01:33:45;;;;;;;18.42;17.52;;;;;;;-141.02;86.91;40744.06;5115415;28;20190;-66
2023/08/18 01:36:17;;;;;;;18.90;17.90;;;;;;;-141.02;87.18;40736.38;5115612;28;20212;-64
2023/08/18 01:38:49;;;;;;;19.02;18.02;;;;;;;-141.02;87.31;40732.56;5115379;28;20192;-66
2023/08/18 01:41:20;;;;;;;18.45;17.55;;;;;;;-141.02;87.52;40728.72;5115482;28;20200;-67
2023/08/18 01:43:47;;;;;;;18.40;17.50;;;;;;;-141.02;87.44;40736.38;5115223;28;20669;-67
2023/08/18 01:46:14;;;;;;;18.25;17.35;;;;;;;-141.02;87.13;40730.63;5115000;28;20311;-67
2023/08/18 01:48:40;;;;;;;21.85;20.75;;;;;;;-141.02;86.95;40721.03;5115900;28;20193;-66
2023/08/18 01:51:07;;;;;;;18.15;17.25;;;;;;;-141.02;87.23;40728.72;5115316;28;20223;-65
2023/08/18 01:53:34;;;;;;;18.27;17.38;;;;;;;-141.02;87.71;40744.06;5115224;28;20216;-63
2023/08/18 02:06:08;;;;;;;17.75;16.95;;;;;;;-141.02;89.87;40709.53;5115641;28;20330;-66
2023/08/18 02:11:57;;;;;;;17.85;17.05;;;;;;;-141.02;88.91;40705.69;5114583;28;20571;-66
2023/08/18 02:14:24;;;;;;;17.95;17.15;;;;;;;-141.02;88.77;40694.19;5114582;28;20193;-65
2023/08/18 02:16:51;;;;;;;18.25;17.35;;;;;;;-141.02;88.16;40722.97;5114793;28;20189;-66
2023/08/18 02:19:18;;;;;;;18.40;17.50;;;;;;;-141.02;88.30;40740.22;5114422;28;20205;-66
2023/08/18 02:28:20;;;;;;;17.70;16.80;;;;;;;-141.02;86.74;40724.88;5113758;27;20280;-66
2023/08/18 02:30:47;;;;;;;18.23;17.33;;;;;;;-141.02;86.49;40744.06;5114258;28;20193;-63
2023/08/18 02:33:14;;;;;;;18.15;17.25;;;;;;;-141.02;86.12;40719.13;5114385;28;20189;-67
2023/08/18 02:35:45;;;;;;;18.30;17.40;;;;;;;-141.02;86.02;40721.03;5114142;28;20193;-66
2023/08/18 02:38:15;;;;;;;18.25;17.35;;;;;;;-141.02;85.86;40747.91;5114594;28;20249;-66
2023/08/18 02:40:44;;;;;;;18.40;17.50;;;;;;;-141.02;86.18;40736.38;5114365;28;20197;-65
2023/08/18 02:43:11;;;;;;;18.58;17.67;;;;;;;-141.02;86.05;40744.06;5113891;28;20213;-66
2023/08/18 02:45:38;;;;;;;18.08;17.17;;;;;;;-141.02;86.36;40747.91;5113917;28;20216;-66
2023/08/18 02:48:06;;;;;;;18.13;17.23;;;;;;;-141.02;86.22;40740.22;5114191;28;20280;-67
2023/08/18 02:50:33;;;;;;;18.00;17.17;;;;;;;-141.02;86.36;40744.06;5113799;28;20199;-66
2023/08/18 02:53:03;;;;;;;18.30;17.40;;;;;;;-141.02;86.51;40738.31;5114331;28;20199;-66
2023/08/18 02:55:30;;;;;;;18.33;17.42;;;;;;;-141.02;86.76;40788.19;5113888;28;20186;-62
2023/08/18 02:57:59;;;;;;;18.30;17.40;;;;;;;-141.02;86.47;40755.56;5113709;28;20199;-65
2023/08/18 03:00:26;;;;;;;18.20;17.30;;;;;;;-141.02;86.39;40765.16;5113946;28;20198;-63
2023/08/18 03:02:53;;;;;;;18.48;17.58;;;;;;;-141.02;86.67;40757.50;5114131;28;20197;-66
2023/08/18 03:05:20;;;;;;;18.30;17.40;;;;;;;-141.02;86.31;40765.16;5113519;28;20189;-66
2023/08/18 03:11:09;;;;;;;18.10;17.20;;;;;;;-141.02;85.98;40778.59;5113391;28;20231;-65
2023/08/18 03:13:37;;;;;;;18.40;17.50;;;;;;;-141.02;84.64;40774.75;5113692;28;20199;-66
2023/08/18 03:16:05;;;;;;;18.48;17.58;;;;;;;-141.02;84.53;40820.81;5113689;28;20200;-65
2023/08/18 03:18:32;;;;;;;18.52;17.63;;;;;;;-141.02;84.51;40816.97;5113603;28;20655;-65
2023/08/18 03:21:30;;;;;;;18.58;17.67;;;;;;;-141.02;84.37;40859.19;5113189;28;20652;-64
2023/08/18 03:23:56;;;;;;;18.38;17.48;;;;;;;-141.02;84.60;40891.78;5113216;28;20192;-66
2023/08/18 03:29:43;;;;;;;18.45;17.55;;;;;;;-141.02;83.05;40987.72;5075605;28;20723;-66
2023/08/18 03:32:10;;;;;;;18.52;17.63;;;;;;;-141.02;82.56;41039.53;5112075;27;20197;-66
2023/08/18 03:34:37;;;;;;;17.98;17.17;;;;;;;-141.02;82.53;41148.91;5113050;28;20196;-58
2023/08/18 03:37:04;;;;;;;18.40;17.50;;;;;;;-141.02;82.28;41193.03;5113275;28;20272;-57
2023/08/18 03:39:30;;;;;;;18.80;17.80;;;;;;;-141.02;82.34;41208.38;5113034;28;20673;-58
2023/08/18 03:41:57;;;;;;;18.77;17.88;;;;;;;-141.02;81.64;41292.81;5112934;28;20807;-63
2023/08/18 03:44:24;;;;;;;18.83;17.85;;;;;;;-141.02;81.58;41354.22;5112833;28;20201;-64
2023/08/18 03:46:52;;;;;;;18.60;17.70;;;;;;;-141.02;81.58;41438.66;5112764;28;20235;-59
2023/08/18 03:49:19;;;;;;;18.77;17.88;;;;;;;-141.02;81.09;41465.50;5113286;28;20193;-61
2023/08/18 03:51:46;;;;;;;18.27;17.38;;;;;;;-141.02;80.92;41540.34;5113273;28;20244;-60
2023/08/18 03:54:13;;;;;;;18.48;17.58;;;;;;;-141.02;80.95;41578.75;5112720;28;20266;-63
2023/08/18 03:56:40;;;;;;;19.27;18.27;;;;;;;-141.02;80.62;41596.00;5112573;28;20315;-65
2023/08/18 03:59:07;;;;;;;18.52;17.60;;;;;;;-141.02;80.45;41653.59;5112680;28;20280;-59
2023/08/18 04:01:34;;;;;;;18.42;17.42;;;;;;;-141.02;80.36;41711.16;5112606;28;20197;-63
2023/08/18 04:04:02;;;;;;;18.27;17.38;;;;;;;-141.02;79.70;41793.69;5112626;28;20282;-65
2023/08/18 04:06:29;;;;;;;18.33;17.42;;;;;;;-141.02;79.26;41885.78;5113006;28;20229;-64
2023/08/18 04:09:06;;;;;;;17.70;16.80;;;;;;;-141.02;79.06;41899.22;5113075;28;20193;-66
2023/08/18 04:11:34;;;;;;;18.65;17.75;;;;;;;-141.02;78.51;41812.88;5112463;28;20655;-62
2023/08/18 04:14:01;;;;;;;17.60;16.70;;;;;;;-141.02;77.84;42039.34;5112788;28;20190;-66
2023/08/18 04:16:28;;;;;;;18.00;17.10;;;;;;;-141.02;77.70;42037.41;5112395;28;20204;-65
2023/08/18 04:18:55;;;;;;;18.20;17.30;;;;;;;-141.02;77.38;42060.44;5112488;28;20199;-61
2023/08/18 04:21:23;;;;;;;18.27;17.38;;;;;;;-141.02;76.92;42073.88;5112745;28;20199;-61
2023/08/18 04:23:50;;;;;;;18.15;17.17;;;;;;;-141.02;76.33;42077.72;5114081;28;20287;-59
2023/08/18 04:26:17;;;;;;;18.08;17.17;;;;;;;-141.02;75.76;42114.19;5116904;27;20262;-67
2023/08/18 04:28:44;;;;;;;17.85;16.95;;;;;;;-141.02;76.41;42112.28;5116946;28;20192;-60
2023/08/18 04:31:11;;;;;;;18.05;17.15;;;;;;;-141.02;75.29;42125.69;5116564;28;20280;-64
2023/08/18 04:33:38;;;;;;;18.05;17.15;;;;;;;-141.02;74.82;42142.97;5116798;28;20283;-58
2023/08/18 04:36:05;;;;;;;18.30;17.30;;;;;;;-141.02;75.01;42144.91;5116922;28;20199;-65
2023/08/18 04:38:33;;;;;;;17.77;16.88;;;;;;;-141.02;75.01;42185.22;5116731;28;20197;-62
2023/08/18 04:41:01;;;;;;;18.00;17.10;;;;;;;-141.02;74.57;42175.59;5116985;28;20239;-63
2023/08/18 04:43:30;;;;;;;18.27;17.27;;;;;;;-141.02;74.58;42194.81;5116322;28;20659;-62
2023/08/18 04:45:57;;;;;;;18.05;17.15;;;;;;;-141.02;74.19;42198.63;5116639;28;20193;-58
2023/08/18 04:48:24;;;;;;;18.58;17.63;;;;;;;-141.02;73.90;42208.25;5116465;27;20710;-63
2023/08/18 04:50:52;;;;;;;18.20;17.30;;;;;;;-141.02;73.30;42221.66;5116457;28;20276;-59
2023/08/18 04:53:19;;;;;;;18.23;17.25;;;;;;;-141.02;73.15;42237.03;5116444;28;20197;-60
2023/08/18 04:55:47;;;;;;;18.00;17.10;;;;;;;-141.02;72.86;42256.22;5115931;28;20225;-65
2023/08/18 04:58:15;;;;;;;17.48;16.60;;;;;;;-141.02;72.63;42271.56;5116365;28;20280;-64
2023/08/18 05:00:42;;;;;;;18.17;17.27;;;;;;;-141.02;71.96;42248.53;5116321;27;20193;-61
2023/08/18 05:03:09;;;;;;;18.02;17.13;;;;;;;-141.02;71.66;42294.63;5115914;28;20676;-62
2023/08/18 05:05:40;;;;;;;18.02;17.13;;;;;;;-141.02;71.17;42244.72;5116162;28;20220;-58
2023/08/18 05:08:07;;;;;;;18.00;17.10;;;;;;;-141.02;70.74;42279.25;5116172;28;20244;-66
2023/08/18 05:10:34;;;;;;;18.08;17.17;;;;;;;-141.02;70.39;42275.41;5115769;28;20193;-60
2023/08/18 05:13:03;;;;;;;17.98;17.08;;;;;;;-141.02;69.51;42279.25;5116686;28;20284;-59
2023/08/18 05:15:30;;;;;;;18.05;17.15;;;;;;;-141.02;68.20;42286.94;5115973;28;20193;-63
2023/08/18 05:17:57;;;;;;;18.10;17.20;;;;;;;-141.02;68.87;42290.78;5115630;28;20189;-67
2023/08/18 05:20:24;;;;;;;17.90;17.00;;;;;;;-141.02;68.33;42250.47;5115628;28;20228;-60
2023/08/18 05:22:51;;;;;;;18.00;17.10;;;;;;;-141.02;68.39;42286.94;5115577;28;20279;-67
2023/08/18 05:25:18;;;;;;;17.77;16.88;;;;;;;-141.02;67.56;42294.63;5115563;28;20204;-67
2023/08/18 05:27:45;;;;;;;17.77;16.88;;;;;;;-141.02;67.23;42302.28;5115766;28;20320;-62
2023/08/18 05:30:14;;;;;;;17.63;16.83;;;;;;;-141.02;67.30;42321.47;5115834;28;20193;-60
2023/08/18 05:32:41;;;;;;;18.02;17.13;;;;;;;-141.02;67.22;42277.34;5115398;28;20211;-64
2023/08/18 05:35:10;;;;;;;17.83;16.92;;;;;;;-141.02;66.62;42304.22;5115558;28;20225;-64
2023/08/18 05:37:37;;;;;;;17.33;16.52;;;;;;;-141.02;66.27;42283.09;5115392;28;20197;-64
2023/08/18 05:40:04;;;;;;;17.58;16.77;;;;;;;-141.02;66.29;42294.63;5115234;28;20694;-59
2023/08/18 05:42:31;;;;;;;17.95;17.05;;;;;;;-141.02;65.96;42294.63;5115590;28;20628;-59
2023/08/18 05:44:58;;;;;;;17.85;16.95;;;;;;;-141.02;65.75;42294.63;5115144;27;20717;-62
2023/08/18 05:47:27;;;;;;;17.77;16.90;;;;;;;-141.02;66.20;42340.69;5115006;28;20683;-66
2023/08/18 05:49:54;;;;;;;17.83;16.92;;;;;;;-141.02;64.70;42309.97;5115133;28;20686;-60
2023/08/18 05:52:20;;;;;;;17.58;16.67;;;;;;;-141.02;64.70;42321.47;5115032;28;20289;-63
2023/08/18 05:54:47;;;;;;;17.80;16.90;;;;;;;-141.02;64.88;42306.13;5115174;28;20283;-65
2023/08/18 05:57:14;;;;;;;17.55;16.75;;;;;;;-141.02;63.87;42290.78;5115020;28;20243;-63
2023/08/18 05:59:41;;;;;;;17.48;16.58;;;;;;;-141.02;63.96;42313.81;5115096;28;20689;-60
2023/08/18 06:02:08;;;;;;;17.67;16.77;;;;;;;-141.02;63.94;42317.66;5115156;28;20224;-60
2023/08/18 06:04:37;;;;;;;17.60;16.80;;;;;;;-141.02;63.05;42333.00;5115036;28;20193;-61
2023/08/18 06:07:04;;;;;;;17.90;17.00;;;;;;;-141.02;63.20;42315.72;5114961;28;20308;-59
2023/08/18 06:09:31;;;;;;;17.63;16.73;;;;;;;-141.02;63.59;42333.00;5114614;28;20200;-64
2023/08/18 06:11:58;;;;;;;18.05;17.15;;;;;;;-141.02;61.97;42363.72;5114689;28;20283;-65
2023/08/18 06:14:24;;;;;;;17.92;17.02;;;;;;;-141.02;62.40;42352.19;5114893;28;20200;-60
2023/08/18 06:16:51;;;;;;;17.58;16.67;;;;;;;-141.02;62.01;42356.03;5115110;28;20208;-61
2023/08/18 06:19:18;;;;;;;18.00;17.10;;;;;;;-141.02;62.30;42363.72;5114794;28;20280;-61
2023/08/18 06:21:47;;;;;;;17.63;16.73;;;;;;;-141.02;62.24;42381.00;5114744;28;20224;-66
2023/08/18 06:24:13;;;;;;;17.80;16.90;;;;;;;-141.02;62.15;42375.22;5114742;28;20193;-64
2023/08/18 06:26:40;;;;;;;17.92;17.02;;;;;;;-141.02;61.59;42413.63;5114335;28;20289;-66
2023/08/18 06:29:07;;;;;;;17.90;17.00;;;;;;;-141.02;61.87;42390.59;5114332;28;20200;-59
2023/08/18 06:31:34;;;;;;;17.80;16.90;;;;;;;-141.02;62.61;42413.63;5114597;27;20193;-65
2023/08/18 06:34:01;;;;;;;17.80;16.90;;;;;;;-141.02;61.88;42367.56;5114481;28;20575;-59
2023/08/18 06:36:28;;;;;;;17.70;16.80;;;;;;;-141.02;62.79;42402.09;5114463;28;20199;-61
2023/08/18 06:38:56;;;;;;;17.75;16.85;;;;;;;-141.02;62.55;42402.09;5114367;28;20283;-60
2023/08/18 06:41:23;;;;;;;17.42;16.52;;;;;;;-141.02;61.24;42359.88;5114041;28;20280;-63
2023/08/18 06:43:50;;;;;;;17.70;16.80;;;;;;;-141.02;61.12;42344.53;5114020;28;20671;-59
2023/08/18 06:46:17;;;;;;;17.35;16.45;;;;;;;-141.02;62.49;42425.13;5113730;28;20193;-67
2023/08/18 06:48:44;;;;;;;17.83;16.83;;;;;;;-141.02;61.92;42375.22;5113846;28;20228;-66
2023/08/18 06:51:11;;;;;;;17.45;16.55;;;;;;;-141.02;60.98;42390.59;5113861;28;20197;-59
2023/08/18 06:53:38;;;;;;;17.65;16.75;;;;;;;-141.02;60.61;42379.06;5113816;28;20231;-66
2023/08/18 06:56:06;;;;;;;17.70;16.77;;;;;;;-141.02;61.25;42423.22;5113651;28;20231;-66
2023/08/18 06:58:33;;;;;;;17.67;16.77;;;;;;;-141.02;61.11;42467.38;5113998;28;20288;-62
2023/08/18 07:01:00;;;;;;;17.77;16.88;;;;;;;-141.02;61.23;42461.59;5113991;28;20201;-64
2023/08/18 07:03:27;;;;;;;17.73;16.83;;;;;;;-141.02;61.17;42500.00;5113818;28;20195;-65
2023/08/18 07:05:55;;;;;;;17.77;16.88;;;;;;;-141.02;60.50;42540.31;5113927;28;20238;-66
2023/08/18 07:08:23;;;;;;;17.52;16.63;;;;;;;-141.02;60.64;42559.50;5113727;28;20235;-68
2023/08/18 07:10:50;;;;;;;17.58;16.67;;;;;;;-141.02;60.39;42524.94;5113801;28;20205;-62
2023/08/18 07:13:20;;;;;;;17.48;16.58;;;;;;;-141.02;59.72;42457.75;5113726;28;20232;-63
2023/08/18 07:15:47;;;;;;;17.42;16.52;;;;;;;-141.02;59.87;42605.56;5113701;28;20190;-68
2023/08/18 07:18:14;;;;;;;17.70;16.70;;;;;;;-141.02;58.52;42523.03;5113563;28;20289;-67
2023/08/18 07:20:43;;;;;;;17.25;16.35;;;;;;;-141.02;58.58;42542.22;5113604;28;20197;-67
2023/08/18 07:23:10;;;;;;;17.27;16.38;;;;;;;-141.02;58.55;42574.88;5113596;28;20197;-63
2023/08/18 07:25:39;;;;;;;17.60;16.70;;;;;;;-141.02;59.08;42622.84;5113600;28;20557;-64
2023/08/18 07:28:06;;;;;;;17.73;16.83;;;;;;;-141.02;58.94;42678.53;5113344;28;20229;-68
2023/08/18 07:30:35;;;;;;;17.40;16.50;;;;;;;-141.02;58.43;42624.78;5113120;28;20198;-63
2023/08/18 07:33:02;;;;;;;17.60;16.70;;;;;;;-141.02;58.63;42674.69;5113256;28;20228;-65
2023/08/18 07:35:29;;;;;;;17.40;16.50;;;;;;;-141.02;58.56;42674.69;5113070;28;20726;-67
2023/08/18 07:37:57;;;;;;;17.80;16.90;;;;;;;-141.02;58.85;42720.75;5113362;28;20322;-65
2023/08/18 07:40:24;;;;;;;17.80;16.90;;;;;;;-141.02;57.66;42809.06;5113300;28;20193;-68
2023/08/18 07:42:51;;;;;;;17.27;16.38;;;;;;;-141.02;57.52;42791.78;5112891;28;20652;-65
2023/08/18 07:45:18;;;;;;;17.60;16.70;;;;;;;-141.02;57.07;42839.78;5113166;28;20232;-59
2023/08/18 07:47:46;;;;;;;17.52;16.63;;;;;;;-141.02;57.36;42847.47;5113067;28;20223;-68
2023/08/18 07:50:14;;;;;;;17.33;16.42;;;;;;;-141.02;57.75;42926.16;5113098;28;20193;-66
2023/08/18 07:52:42;;;;;;;17.13;16.23;;;;;;;-141.02;56.50;42931.94;5112707;28;20211;-63
2023/08/18 07:55:09;;;;;;;17.38;16.48;;;;;;;-141.02;55.30;42924.25;5112765;28;20693;-62
2023/08/18 07:57:36;;;;;;;17.45;16.55;;;;;;;-141.02;56.42;42897.38;5112257;28;20238;-65
2023/08/18 08:00:09;;;;;;;17.38;16.48;;;;;;;-141.02;57.18;42964.56;5112149;28;20731;-65
2023/08/18 08:02:36;;;;;;;16.80;16.00;;;;;;;-141.02;55.58;42997.19;5113211;28;20224;-66
2023/08/18 08:05:06;;;;;;;17.27;16.38;;;;;;;-141.02;55.33;43089.34;5112937;28;20200;-67
2023/08/18 08:07:33;;;;;;;17.23;16.33;;;;;;;-141.02;55.04;43098.94;5112465;28;20659;-64
2023/08/18 08:10:03;;;;;;;17.40;16.50;;;;;;;-141.02;55.34;43100.88;5112840;28;20280;-66
2023/08/18 08:12:30;;;;;;;17.85;16.90;;;;;;;-141.02;56.04;43056.72;5112807;28;20801;-65
2023/08/18 08:14:57;;;;;;;17.40;16.50;;;;;;;-141.02;55.55;43014.47;5112804;28;20195;-64
2023/08/18 08:17:24;;;;;;;17.50;16.60;;;;;;;-141.02;55.23;43104.72;5112791;28;20195;-67
2023/08/18 08:19:51;;;;;;;16.92;16.02;;;;;;;-141.02;55.16;43127.75;5112664;28;20197;-67
2023/08/18 08:22:19;;;;;;;16.90;16.00;;;;;;;-141.02;54.79;43290.94;5112455;28;20659;-63
2023/08/18 08:24:46;;;;;;;16.88;15.98;;;;;;;-141.02;54.65;43258.31;5112293;28;20645;-62
2023/08/18 08:27:15;;;;;;;17.23;16.33;;;;;;;-141.02;53.96;43231.44;5112937;28;20193;-66
2023/08/18 08:29:42;;;;;;;16.98;16.17;;;;;;;-141.02;54.45;43216.06;5112272;28;20773;-67
2023/08/18 08:32:09;;;;;;;17.17;16.38;;;;;;;-141.02;54.74;43216.06;5112276;28;20652;-65
2023/08/18 08:34:39;;;;;;;17.17;16.38;;;;;;;-141.02;54.58;43235.28;5112592;28;20220;-64
2023/08/18 08:37:07;;;;;;;16.83;16.02;;;;;;;-141.02;54.01;43408.06;5112307;28;20189;-66
2023/08/18 08:39:35;;;;;;;16.98;16.17;;;;;;;-141.02;53.69;43373.50;5112269;28;20204;-66
2023/08/18 08:42:02;;;;;;;17.25;16.45;;;;;;;-141.02;53.54;43669.22;5112398;28;20288;-67
2023/08/18 08:44:29;;;;;;;16.95;16.10;;;;;;;-141.02;53.34;43640.41;5112209;28;20679;-68
2023/08/18 08:46:56;;;;;;;17.23;16.42;;;;;;;-141.02;53.25;43569.34;5112503;28;20289;-67
2023/08/18 08:49:27;;;;;;;17.05;16.15;;;;;;;-141.02;52.30;43484.88;5112279;28;20224;-69
2023/08/18 08:51:57;;;;;;;17.27;16.38;;;;;;;-141.02;52.72;43636.56;5112419;28;20275;-68
2023/08/18 08:54:27;;;;;;;17.15;16.25;;;;;;;-141.02;52.11;43342.78;5112078;28;20185;-65
2023/08/18 08:56:57;;;;;;;16.65;15.85;;;;;;;-141.02;52.37;43429.19;5112112;28;20679;-66
2023/08/18 08:59:25;;;;;;;17.05;16.25;;;;;;;-141.02;52.70;43594.31;5112270;28;20232;-65
2023/08/18 09:01:52;;;;;;;17.05;16.25;;;;;;;-141.02;51.69;43517.50;5112348;28;20197;-59
2023/08/18 09:04:20;;;;;;;16.95;16.15;;;;;;;-141.02;51.27;43690.34;5112471;28;20193;-65
2023/08/18 09:06:48;;;;;;;17.10;16.30;;;;;;;-141.02;50.93;43767.16;5112271;28;20202;-59
2023/08/18 09:09:15;;;;;;;16.92;16.13;;;;;;;-141.02;51.05;43469.50;5112268;28;20231;-63
2023/08/18 09:11:45;;;;;;;17.10;16.30;;;;;;;-141.02;51.27;43511.75;5115851;28;20249;-65
2023/08/18 09:14:15;;;;;;;17.20;16.40;;;;;;;-141.02;51.21;43623.13;5116159;28;20582;-67
2023/08/18 09:16:44;;;;;;;17.13;16.33;;;;;;;-141.02;51.00;43692.25;5115691;28;20280;-67
2023/08/18 09:19:13;;;;;;;16.52;15.73;;;;;;;-141.02;49.67;43427.28;5115683;28;20659;-70
2023/08/18 09:21:40;;;;;;;16.98;16.08;;;;;;;-141.02;49.99;43415.75;5115927;28;20201;-67
2023/08/18 09:24:08;;;;;;;16.70;15.90;;;;;;;-141.02;49.68;43536.72;5115879;28;20276;-62
2023/08/18 09:26:35;;;;;;;16.95;16.15;;;;;;;-141.02;49.11;43394.63;5115882;28;20653;-66
2023/08/18 09:29:02;;;;;;;17.00;16.10;;;;;;;-141.02;47.58;43342.78;5115650;28;20263;-68
2023/08/18 09:31:31;;;;;;;16.38;15.57;;;;;;;-141.02;47.68;43327.44;5115503;28;20730;-68
2023/08/18 09:33:58;;;;;;;16.38;15.57;;;;;;;-141.02;48.17;43262.16;5115627;28;20193;-68
2023/08/18 09:36:26;;;;;;;16.63;15.82;;;;;;;-141.02;47.83;43492.56;5115358;28;20261;-62
2023/08/18 09:38:53;;;;;;;16.55;15.75;;;;;;;-141.02;47.57;43500.25;5115275;28;20280;-68
2023/08/18 09:41:21;;;;;;;16.67;15.88;;;;;;;-141.02;47.51;43534.78;5115327;28;20663;-66
2023/08/18 09:43:48;;;;;;;16.92;16.13;;;;;;;-141.02;46.78;43596.25;5115182;28;20693;-66
2023/08/18 09:46:16;;;;;;;16.77;15.98;;;;;;;-141.02;46.58;43473.34;5115429;28;20276;-63
2023/08/18 09:48:47;;;;;;;16.92;16.13;;;;;;;-141.02;45.83;43458.00;5115660;28;20229;-69
2023/08/18 09:51:16;;;;;;;16.70;15.90;;;;;;;-141.02;45.59;43770.97;5115038;28;20647;-66
2023/08/18 09:53:52;;;;;;;16.65;15.85;;;;;;;-141.02;45.37;43573.19;5115322;28;20311;-65
2023/08/18 09:56:28;;;;;;;16.13;15.32;;;;;;;-141.02;44.60;43669.22;5115443;28;20229;-68
2023/08/18 09:59:04;;;;;;;16.70;15.90;;;;;;;-141.02;44.44;43874.69;5115347;28;20219;-67
2023/08/18 10:01:35;;;;;;;16.63;15.82;;;;;;;-141.02;44.55;43665.38;5114897;28;20197;-67
2023/08/18 10:04:05;;;;;;;16.30;15.50;;;;;;;-141.02;44.87;43684.56;5114945;28;20720;-68
2023/08/18 10:06:36;;;;;;;16.58;15.77;;;;;;;-141.02;45.40;43530.97;5114926;28;20587;-59
2023/08/18 10:09:03;;;;;;;16.50;15.70;;;;;;;-141.02;45.46;43369.66;5115004;28;20585;-59
2023/08/18 10:11:30;;;;;;;16.30;15.50;;;;;;;-141.02;45.57;43335.09;5114712;28;20597;-59
2023/08/18 10:13:58;;;;;;;16.50;15.70;;;;;;;-141.02;45.69;43515.59;5114646;28;20193;-63
2023/08/18 10:16:25;;;;;;;16.30;15.50;;;;;;;-141.02;45.86;43481.03;5114564;28;20197;-60
2023/08/18 10:18:58;;;;;;;16.55;15.75;;;;;;;-141.02;45.73;43500.25;5115036;28;20197;-62
2023/08/18 10:21:27;;;;;;;16.08;15.38;;;;;;;-141.02;45.67;43527.13;5113556;28;20236;-65
2023/08/18 10:23:54;;;;;;;16.27;15.48;;;;;;;-141.02;45.76;43456.06;5114414;28;20708;-69
2023/08/18 10:26:23;;;;;;;16.52;15.73;;;;;;;-141.02;45.33;43673.06;5114692;28;20287;-66
2023/08/18 10:28:51;;;;;;;16.13;15.32;;;;;;;-141.02;45.84;43638.50;5114771;28;20316;-62
2023/08/18 10:31:18;;;;;;;16.42;15.63;;;;;;;-141.02;45.31;43815.16;5114910;27;20201;-66
2023/08/18 10:33:49;;;;;;;16.83;16.02;;;;;;;-141.02;44.72;43784.44;5114546;28;20601;-69
2023/08/18 10:36:21;;;;;;;16.35;15.55;;;;;;;-141.02;45.23;43642.31;5114918;28;20258;-66
2023/08/18 10:38:51;;;;;;;16.52;15.73;;;;;;;-141.02;44.84;43707.63;5114476;28;20209;-65
2023/08/18 10:41:25;;;;;;;16.23;15.43;;;;;;;-141.02;45.35;43742.19;5114342;28;20185;-60
2023/08/18 10:43:56;;;;;;;17.27;16.48;;;;;;;-141.02;45.27;43746.03;5114373;28;20262;-67
2023/08/18 10:46:33;;;;;;;16.45;15.65;;;;;;;-141.02;44.99;43788.28;5114332;28;20195;-68
2023/08/18 10:49:00;;;;;;;16.48;15.68;;;;;;;-141.02;44.80;43986.06;5114196;28;20223;-69
2023/08/18 10:51:28;;;;;;;16.58;15.77;;;;;;;-141.02;44.40;43907.31;5114203;28;20280;-67
2023/08/18 10:53:56;;;;;;;16.70;15.90;;;;;;;-141.02;44.44;44095.53;5114122;28;20200;-59
2023/08/18 10:56:23;;;;;;;16.48;15.68;;;;;;;-141.02;44.26;44153.16;5113607;28;20281;-61
2023/08/18 10:58:51;;;;;;;16.30;15.50;;;;;;;-141.02;44.41;44047.50;5114126;28;20285;-64
2023/08/18 11:01:20;;;;;;;16.55;15.75;;;;;;;-141.02;44.12;44168.50;5113673;28;20236;-63
2023/08/18 11:03:47;;;;;;;16.60;15.80;;;;;;;-141.02;44.06;44195.41;5113680;28;20193;-62
2023/08/18 11:06:14;;;;;;;16.52;15.73;;;;;;;-141.02;44.08;44450.84;5113912;28;20197;-64
2023/08/18 11:08:41;;;;;;;16.80;16.00;;;;;;;-141.02;43.66;44796.56;5113532;28;20229;-65
2023/08/18 11:11:10;;;;;;;16.40;15.60;;;;;;;-141.02;43.60;44239.56;5113494;28;20678;-68
2023/08/18 11:13:37;;;;;;;16.27;15.48;;;;;;;-141.02;44.35;43907.31;5113469;28;20654;-65
2023/08/18 11:16:05;;;;;;;16.15;15.35;;;;;;;-141.02;43.60;44481.56;5113772;28;20197;-63
2023/08/18 11:18:32;;;;;;;16.40;15.60;;;;;;;-141.02;43.33;44231.88;5113590;28;20288;-62
2023/08/18 11:20:58;;;;;;;16.65;15.85;;;;;;;-141.02;44.09;44537.25;5113336;28;20199;-60
2023/08/18 11:23:26;;;;;;;16.48;15.68;;;;;;;-141.02;44.02;44568.00;5113619;28;20193;-63
2023/08/18 11:25:54;;;;;;;16.33;15.52;;;;;;;-141.02;43.23;44398.97;5113765;28;20205;-63
2023/08/18 11:28:24;;;;;;;16.45;15.65;;;;;;;-141.02;43.37;44698.59;5113136;28;20197;-64
2023/08/18 11:30:54;;;;;;;16.67;15.88;;;;;;;-141.02;42.50;44610.25;5113458;28;20224;-64
2023/08/18 11:33:23;;;;;;;16.95;16.05;;;;;;;-141.02;44.38;43845.88;5113321;28;20288;-63
2023/08/18 11:35:51;;;;;;;16.27;15.48;;;;;;;-141.02;47.02;43108.56;5113380;28;20209;-65
2023/08/18 11:38:18;;;;;;;17.00;16.10;;;;;;;-141.02;46.08;43949.56;5113028;27;20242;-66
2023/08/18 11:40:46;;;;;;;16.63;15.82;;;;;;;-141.02;45.04;44306.78;5112950;28;20583;-66
2023/08/18 11:43:13;;;;;;;16.48;15.60;;;;;;;-141.02;44.39;44562.22;5113193;28;20208;-61
2023/08/18 11:45:42;;;;;;;16.73;15.85;;;;;;;-141.02;44.03;44433.53;5112880;28;20692;-65
2023/08/18 11:48:09;;;;;;;17.00;16.10;;;;;;;-141.02;44.62;44343.28;5113052;28;20732;-61
2023/08/18 11:50:36;;;;;;;17.00;16.10;;;;;;;-141.02;45.74;44132.03;5112756;28;20700;-63
2023/08/18 11:53:05;;;;;;;16.52;15.73;;;;;;;-141.02;46.55;43555.91;5112781;28;20189;-62